createdAt,value
2017-01-24T00:00:54.619Z,0
2017-01-24T00:02:04.778Z,0
2017-01-24T00:03:14.934Z,0
2017-01-24T00:04:25.084Z,0
2017-01-24T00:05:34.800Z,0
2017-01-24T00:06:45.444Z,0
2017-01-24T00:07:54.722Z,0
2017-01-24T00:09:05.312Z,0
2017-01-24T00:10:15.020Z,0
2017-01-24T00:11:25.186Z,0
2017-01-24T00:12:34.511Z,0
2017-01-24T00:13:44.663Z,0
2017-01-24T00:14:54.373Z,0
2017-01-24T00:16:04.970Z,0
2017-01-24T00:17:14.255Z,0
2017-01-24T00:18:24.460Z,0
2017-01-24T00:19:34.177Z,0
2017-01-24T00:20:44.330Z,0
2017-01-24T00:21:54.919Z,0
2017-01-24T00:23:04.201Z,0
2017-01-24T00:24:14.418Z,0
2017-01-24T00:25:23.703Z,0
2017-01-24T00:26:32.984Z,0
2017-01-24T00:27:42.697Z,0
2017-01-24T00:28:52.850Z,0
2017-01-24T00:30:03.071Z,0
2017-01-24T00:31:13.225Z,0
2017-01-24T00:32:22.940Z,0
2017-01-24T00:33:33.091Z,0
2017-01-24T00:34:42.836Z,0
2017-01-24T00:35:52.605Z,0
2017-01-24T00:37:02.762Z,0
2017-01-24T00:38:12.915Z,0
2017-01-24T00:39:23.072Z,0
2017-01-24T00:40:32.818Z,0
2017-01-24T00:41:43.466Z,0
2017-01-24T00:42:52.748Z,0
2017-01-24T00:44:02.465Z,0
2017-01-24T00:45:12.614Z,0
2017-01-24T00:46:22.763Z,0
2017-01-24T00:47:32.524Z,0
2017-01-24T00:48:41.801Z,0
2017-01-24T00:49:51.082Z,0
2017-01-24T00:51:00.796Z,0
2017-01-24T00:52:11.388Z,0
2017-01-24T00:53:21.154Z,0
2017-01-24T00:54:31.295Z,0
2017-01-24T00:55:41.452Z,0
2017-01-24T00:56:51.609Z,0
2017-01-24T00:58:02.199Z,0
2017-01-24T00:59:12.407Z,0
2017-01-24T01:00:22.569Z,0
2017-01-24T01:01:32.726Z,0
2017-01-24T01:02:42.887Z,0
2017-01-24T01:03:53.040Z,0
2017-01-24T01:05:02.805Z,0
2017-01-24T01:06:12.522Z,0
2017-01-24T01:07:22.239Z,0
2017-01-24T01:08:31.951Z,0
2017-01-24T01:09:41.670Z,0
2017-01-24T01:10:51.455Z,0
2017-01-24T01:12:01.617Z,0
2017-01-24T01:13:11.802Z,0
2017-01-24T01:14:21.079Z,0
2017-01-24T01:15:31.232Z,0
2017-01-24T01:16:41.429Z,0
2017-01-24T01:17:51.586Z,0
2017-01-24T01:19:01.299Z,0
2017-01-24T01:20:11.448Z,0
2017-01-24T01:21:21.157Z,0
2017-01-24T01:22:30.490Z,0
2017-01-24T01:23:40.640Z,0
2017-01-24T01:24:49.921Z,0
2017-01-24T01:26:00.070Z,0
2017-01-24T01:27:10.215Z,0
2017-01-24T01:28:20.868Z,0
2017-01-24T01:29:30.577Z,0
2017-01-24T01:30:40.295Z,0
2017-01-24T01:31:50.009Z,0
2017-01-24T01:33:00.605Z,0
2017-01-24T01:34:10.814Z,0
2017-01-24T01:35:21.399Z,0
2017-01-24T01:36:31.546Z,0
2017-01-24T01:37:40.826Z,0
2017-01-24T01:38:50.564Z,0
2017-01-24T01:40:00.796Z,0
2017-01-24T01:41:10.519Z,0
2017-01-24T01:42:20.671Z,0
2017-01-24T01:43:30.830Z,0
2017-01-24T01:44:40.542Z,0
2017-01-24T01:45:51.178Z,0
2017-01-24T01:47:01.336Z,0
2017-01-24T01:48:11.492Z,0
2017-01-24T01:49:20.774Z,0
2017-01-24T01:50:30.051Z,0
2017-01-24T01:51:39.820Z,0
2017-01-24T01:52:49.533Z,0
2017-01-24T01:53:59.690Z,0
2017-01-24T01:55:08.967Z,0
2017-01-24T01:56:18.681Z,0
2017-01-24T01:57:28.450Z,0
2017-01-24T01:58:38.160Z,0
2017-01-24T01:59:47.436Z,0
2017-01-24T02:00:58.026Z,0
2017-01-24T02:02:07.738Z,0
2017-01-24T02:03:17.940Z,0
2017-01-24T02:04:28.089Z,0
2017-01-24T02:05:37.810Z,0
2017-01-24T02:06:47.087Z,0
2017-01-24T02:07:57.244Z,0
2017-01-24T02:09:07.009Z,0
2017-01-24T02:10:16.293Z,0
2017-01-24T02:11:26.879Z,0
2017-01-24T02:12:36.588Z,0
2017-01-24T02:13:46.746Z,0
2017-01-24T02:14:56.069Z,0
2017-01-24T02:16:05.779Z,0
2017-01-24T02:17:15.932Z,0
2017-01-24T02:18:25.649Z,0
2017-01-24T02:19:36.235Z,0
2017-01-24T02:20:46.000Z,0
2017-01-24T02:21:56.149Z,0
2017-01-24T02:23:06.294Z,0
2017-01-24T02:24:16.883Z,0
2017-01-24T02:25:26.603Z,0
2017-01-24T02:26:37.250Z,0
2017-01-24T02:27:46.990Z,0
2017-01-24T02:28:57.580Z,0
2017-01-24T02:30:07.297Z,0
2017-01-24T02:31:17.019Z,0
2017-01-24T02:32:27.663Z,0
2017-01-24T02:33:37.377Z,0
2017-01-24T02:34:47.969Z,0
2017-01-24T02:35:57.243Z,0
2017-01-24T02:37:07.399Z,0
2017-01-24T02:38:17.165Z,0
2017-01-24T02:39:26.437Z,0
2017-01-24T02:40:35.711Z,0
2017-01-24T02:41:45.425Z,0
2017-01-24T02:42:55.145Z,0
2017-01-24T02:44:04.915Z,0
2017-01-24T02:45:14.644Z,0
2017-01-24T02:46:24.801Z,0
2017-01-24T02:47:34.078Z,0
2017-01-24T02:48:43.359Z,0
2017-01-24T02:49:52.688Z,0
2017-01-24T02:51:02.397Z,0
2017-01-24T02:52:12.550Z,0
2017-01-24T02:53:22.719Z,0
2017-01-24T02:54:32.429Z,0
2017-01-24T02:55:43.066Z,0
2017-01-24T02:56:53.220Z,0
2017-01-24T02:58:02.932Z,0
2017-01-24T02:59:12.649Z,0
2017-01-24T03:00:22.803Z,0
2017-01-24T03:01:32.576Z,0
2017-01-24T03:02:43.162Z,0
2017-01-24T03:03:53.758Z,0
2017-01-24T03:05:04.348Z,0
2017-01-24T03:06:14.061Z,0
2017-01-24T03:07:23.834Z,0
2017-01-24T03:08:33.547Z,0
2017-01-24T03:09:43.297Z,0
2017-01-24T03:10:53.014Z,0
2017-01-24T03:12:02.735Z,0
2017-01-24T03:13:12.507Z,0
2017-01-24T03:14:23.097Z,0
2017-01-24T03:15:32.846Z,0
2017-01-24T03:16:42.999Z,0
2017-01-24T03:17:52.712Z,0
2017-01-24T03:19:03.358Z,0
2017-01-24T03:20:13.073Z,0
2017-01-24T03:21:22.789Z,0
2017-01-24T03:22:32.510Z,0
2017-01-24T03:23:42.255Z,0
2017-01-24T03:24:52.468Z,0
2017-01-24T03:26:02.177Z,0
2017-01-24T03:27:11.454Z,0
2017-01-24T03:28:21.616Z,0
2017-01-24T03:29:32.204Z,0
2017-01-24T03:30:41.966Z,0
2017-01-24T03:31:52.563Z,0
2017-01-24T03:33:03.151Z,0
2017-01-24T03:34:12.863Z,0
2017-01-24T03:35:23.466Z,0
2017-01-24T03:36:33.666Z,0
2017-01-24T03:37:42.941Z,0
2017-01-24T03:38:53.095Z,0
2017-01-24T03:40:02.811Z,0
2017-01-24T03:41:12.520Z,0
2017-01-24T03:42:22.284Z,0
2017-01-24T03:43:32.431Z,0
2017-01-24T03:44:43.059Z,0
2017-01-24T03:45:52.780Z,0
2017-01-24T03:47:03.374Z,0
2017-01-24T03:48:14.008Z,0
2017-01-24T03:49:23.724Z,0
2017-01-24T03:50:33.884Z,0
2017-01-24T03:51:43.158Z,0
2017-01-24T03:52:53.317Z,0
2017-01-24T03:54:03.086Z,0
2017-01-24T03:55:12.798Z,0
2017-01-24T03:56:22.513Z,0
2017-01-24T03:57:32.234Z,0
2017-01-24T03:58:42.835Z,0
2017-01-24T03:59:53.040Z,0
2017-01-24T04:01:02.757Z,0
2017-01-24T04:02:13.346Z,0
2017-01-24T04:03:23.492Z,0
2017-01-24T04:04:33.217Z,0
2017-01-24T04:05:42.982Z,0
2017-01-24T04:06:53.128Z,0
2017-01-24T04:08:02.844Z,0
2017-01-24T04:09:12.557Z,0
2017-01-24T04:10:22.279Z,0
2017-01-24T04:11:32.044Z,0
2017-01-24T04:12:41.762Z,0
2017-01-24T04:13:51.911Z,0
2017-01-24T04:15:02.064Z,0
2017-01-24T04:16:11.785Z,0
2017-01-24T04:17:22.426Z,0
2017-01-24T04:18:32.575Z,0
2017-01-24T04:19:42.729Z,0
2017-01-24T04:20:52.890Z,0
2017-01-24T04:22:03.043Z,0
2017-01-24T04:23:12.821Z,0
2017-01-24T04:24:23.417Z,0
2017-01-24T04:25:34.003Z,0
2017-01-24T04:26:43.715Z,0
2017-01-24T04:27:53.428Z,0
2017-01-24T04:29:03.626Z,0
2017-01-24T04:30:13.780Z,0
2017-01-24T04:31:23.497Z,0
2017-01-24T04:32:33.653Z,0
2017-01-24T04:33:42.931Z,0
2017-01-24T04:34:52.695Z,0
2017-01-24T04:36:02.849Z,0
2017-01-24T04:37:12.137Z,0
2017-01-24T04:38:21.851Z,0
2017-01-24T04:39:31.132Z,0
2017-01-24T04:40:40.898Z,0
2017-01-24T04:41:51.487Z,0
2017-01-24T04:43:01.205Z,0
2017-01-24T04:44:11.365Z,0
2017-01-24T04:45:21.080Z,0
2017-01-24T04:46:31.724Z,0
2017-01-24T04:47:42.318Z,0
2017-01-24T04:48:52.910Z,0
2017-01-24T04:50:02.628Z,0
2017-01-24T04:51:12.777Z,0
2017-01-24T04:52:22.098Z,0
2017-01-24T04:53:31.811Z,0
2017-01-24T04:54:41.088Z,0
2017-01-24T04:55:51.239Z,0
2017-01-24T04:57:00.955Z,0
2017-01-24T04:58:10.869Z,0
2017-01-24T04:59:21.453Z,0
2017-01-24T05:00:32.052Z,0
2017-01-24T05:01:42.208Z,0
2017-01-24T05:02:51.921Z,0
2017-01-24T05:04:02.123Z,0
2017-01-24T05:05:11.836Z,0
2017-01-24T05:06:21.992Z,0
2017-01-24T05:07:32.143Z,0
2017-01-24T05:08:42.737Z,0
2017-01-24T05:09:52.501Z,0
2017-01-24T05:11:02.222Z,0
2017-01-24T05:12:11.511Z,0
2017-01-24T05:13:21.668Z,0
2017-01-24T05:14:31.378Z,0
2017-01-24T05:15:42.123Z,0
2017-01-24T05:16:51.839Z,0
2017-01-24T05:18:01.555Z,0
2017-01-24T05:19:11.278Z,0
2017-01-24T05:20:21.431Z,0
2017-01-24T05:21:32.082Z,0
2017-01-24T05:22:41.353Z,0
2017-01-24T05:23:50.631Z,0
2017-01-24T05:25:00.785Z,0
2017-01-24T05:26:10.503Z,0
2017-01-24T05:27:20.266Z,0
2017-01-24T05:28:30.856Z,0
2017-01-24T05:29:41.445Z,0
2017-01-24T05:30:51.162Z,0
2017-01-24T05:32:01.757Z,0
2017-01-24T05:33:11.080Z,0
2017-01-24T05:34:21.665Z,0
2017-01-24T05:35:31.811Z,0
2017-01-24T05:36:41.964Z,0
2017-01-24T05:37:51.245Z,0
2017-01-24T05:39:01.894Z,0
2017-01-24T05:40:11.611Z,0
2017-01-24T05:41:21.325Z,0
2017-01-24T05:42:31.041Z,0
2017-01-24T05:43:40.763Z,0
2017-01-24T05:44:50.964Z,0
2017-01-24T05:46:00.241Z,0
2017-01-24T05:47:10.395Z,0
2017-01-24T05:48:20.988Z,0
2017-01-24T05:49:31.577Z,0
2017-01-24T05:50:41.802Z,0
2017-01-24T05:51:52.388Z,0
2017-01-24T05:53:02.540Z,0
2017-01-24T05:54:13.294Z,0
2017-01-24T05:55:23.682Z,0
2017-01-24T05:56:33.788Z,0
2017-01-24T05:57:43.721Z,0
2017-01-24T05:58:54.638Z,0
2017-01-24T06:00:04.412Z,0
2017-01-24T06:01:15.453Z,0
2017-01-24T06:02:24.934Z,0
2017-01-24T06:03:35.084Z,0
2017-01-24T06:04:44.382Z,0
2017-01-24T06:05:54.534Z,0
2017-01-24T06:07:04.251Z,0
2017-01-24T06:08:14.016Z,0
2017-01-24T06:09:23.737Z,0
2017-01-24T06:10:33.010Z,0
2017-01-24T06:11:43.164Z,0
2017-01-24T06:12:53.316Z,0
2017-01-24T06:14:03.517Z,0
2017-01-24T06:15:13.254Z,0
2017-01-24T06:16:23.404Z,0
2017-01-24T06:17:33.561Z,0
2017-01-24T06:18:43.706Z,0
2017-01-24T06:19:53.912Z,0
2017-01-24T06:21:03.189Z,0
2017-01-24T06:22:12.476Z,0
2017-01-24T06:23:22.636Z,0
2017-01-24T06:24:32.797Z,0
2017-01-24T06:25:42.565Z,0
2017-01-24T06:26:53.594Z,0
2017-01-24T06:28:03.752Z,0
2017-01-24T06:29:14.345Z,0
2017-01-24T06:30:23.618Z,0
2017-01-24T06:31:35.156Z,0
2017-01-24T06:32:45.308Z,0
2017-01-24T06:33:54.592Z,0
2017-01-24T06:35:03.867Z,0
2017-01-24T06:36:14.020Z,0
2017-01-24T06:37:23.786Z,0
2017-01-24T06:38:33.943Z,0
2017-01-24T06:39:44.535Z,0
2017-01-24T06:40:55.129Z,0
2017-01-24T06:42:04.405Z,0
2017-01-24T06:43:13.743Z,0
2017-01-24T06:44:23.904Z,0
2017-01-24T06:45:34.053Z,0
2017-01-24T06:46:43.762Z,0
2017-01-24T06:47:53.047Z,0
2017-01-24T06:49:03.688Z,0
2017-01-24T06:50:13.442Z,0
2017-01-24T06:51:22.720Z,0
2017-01-24T06:52:33.309Z,0
2017-01-24T06:53:43.021Z,0
2017-01-24T06:54:53.223Z,0
2017-01-24T06:56:03.380Z,0
2017-01-24T06:57:12.657Z,0
2017-01-24T06:58:22.371Z,0
2017-01-24T06:59:31.649Z,0
2017-01-24T07:00:42.289Z,0
2017-01-24T07:01:52.001Z,0
2017-01-24T07:03:02.158Z,0
2017-01-24T07:04:11.871Z,0
2017-01-24T07:05:21.589Z,0
2017-01-24T07:06:30.915Z,0
2017-01-24T07:07:40.632Z,0
2017-01-24T07:08:50.344Z,0
2017-01-24T07:10:00.062Z,0
2017-01-24T07:11:10.218Z,0
2017-01-24T07:12:20.416Z,0
2017-01-24T07:13:29.697Z,0
2017-01-24T07:14:39.854Z,0
2017-01-24T07:15:49.571Z,0
2017-01-24T07:17:00.161Z,0
2017-01-24T07:18:10.105Z,0
2017-01-24T07:19:20.279Z,0
2017-01-24T07:20:29.992Z,0
2017-01-24T07:21:39.271Z,0
2017-01-24T07:22:49.861Z,0
2017-01-24T07:23:59.631Z,0
2017-01-24T07:25:09.784Z,0
2017-01-24T07:26:20.385Z,0
2017-01-24T07:27:30.986Z,0
2017-01-24T07:28:40.703Z,0
2017-01-24T07:29:50.908Z,0
2017-01-24T07:31:01.058Z,0
2017-01-24T07:32:10.775Z,0
2017-01-24T07:33:20.928Z,0
2017-01-24T07:34:31.102Z,0
2017-01-24T07:35:40.867Z,0
2017-01-24T07:36:50.148Z,0
2017-01-24T07:38:00.740Z,0
2017-01-24T07:39:11.334Z,0
2017-01-24T07:40:21.486Z,5
2017-01-24T07:41:31.252Z,5
2017-01-24T07:42:40.989Z,5
2017-01-24T07:43:50.267Z,5
2017-01-24T07:44:59.544Z,5
2017-01-24T07:46:09.265Z,5
2017-01-24T07:47:19.029Z,5
2017-01-24T07:48:28.743Z,5
2017-01-24T07:49:38.021Z,5
2017-01-24T07:50:47.749Z,5
2017-01-24T07:51:57.467Z,5
2017-01-24T07:53:07.673Z,5
2017-01-24T07:54:17.384Z,5
2017-01-24T07:55:26.669Z,5
2017-01-24T07:56:35.951Z,5
2017-01-24T07:57:45.668Z,5
2017-01-24T07:58:55.889Z,5
2017-01-24T08:00:06.042Z,5
2017-01-24T08:01:16.204Z,5
2017-01-24T08:02:26.356Z,5
2017-01-24T08:03:36.070Z,5
2017-01-24T08:04:46.706Z,5
2017-01-24T08:05:56.872Z,5
2017-01-24T08:07:07.022Z,5
2017-01-24T08:08:16.301Z,5
2017-01-24T08:09:26.012Z,10
2017-01-24T08:10:36.220Z,10
2017-01-24T08:11:45.933Z,10
2017-01-24T08:12:56.083Z,10
2017-01-24T08:14:06.248Z,10
2017-01-24T08:15:16.405Z,15
2017-01-24T08:16:25.735Z,15
2017-01-24T08:17:35.449Z,15
2017-01-24T08:18:45.613Z,15
2017-01-24T08:19:56.202Z,15
2017-01-24T08:21:05.943Z,15
2017-01-24T08:22:15.705Z,15
2017-01-24T08:23:24.981Z,15
2017-01-24T08:24:35.582Z,15
2017-01-24T08:25:45.296Z,15
2017-01-24T08:26:55.009Z,15
2017-01-24T08:28:04.335Z,15
2017-01-24T08:29:14.493Z,15
2017-01-24T08:30:24.644Z,15
2017-01-24T08:31:34.358Z,15
2017-01-24T08:32:44.102Z,15
2017-01-24T08:33:53.872Z,15
2017-01-24T08:35:03.153Z,15
2017-01-24T08:36:12.874Z,15
2017-01-24T08:37:22.596Z,15
2017-01-24T08:38:32.306Z,15
2017-01-24T08:39:41.642Z,15
2017-01-24T08:40:50.919Z,15
2017-01-24T08:42:00.637Z,20
2017-01-24T08:43:10.350Z,20
2017-01-24T08:44:20.066Z,25
2017-01-24T08:45:29.828Z,25
2017-01-24T08:46:39.545Z,25
2017-01-24T08:47:50.158Z,25
2017-01-24T08:49:00.316Z,25
2017-01-24T08:50:10.908Z,25
2017-01-24T08:51:21.129Z,25
2017-01-24T08:52:31.287Z,25
2017-01-24T08:53:41.434Z,30
2017-01-24T08:54:52.030Z,30
2017-01-24T08:56:01.743Z,30
2017-01-24T08:57:11.511Z,30
2017-01-24T08:58:21.228Z,30
2017-01-24T08:59:31.385Z,25
2017-01-24T09:00:41.095Z,25
2017-01-24T09:01:50.823Z,20
2017-01-24T09:03:00.591Z,20
2017-01-24T09:04:09.867Z,15
2017-01-24T09:05:20.023Z,15
2017-01-24T09:06:29.744Z,15
2017-01-24T09:07:39.461Z,15
2017-01-24T09:08:48.789Z,20
2017-01-24T09:09:58.067Z,20
2017-01-24T09:11:07.793Z,20
2017-01-24T09:12:17.510Z,20
2017-01-24T09:13:28.099Z,15
2017-01-24T09:14:37.864Z,15
2017-01-24T09:15:48.023Z,15
2017-01-24T09:16:58.171Z,15
2017-01-24T09:18:08.324Z,15
2017-01-24T09:19:18.477Z,15
2017-01-24T09:20:28.243Z,15
2017-01-24T09:21:37.523Z,20
2017-01-24T09:22:48.112Z,20
2017-01-24T09:23:57.825Z,20
2017-01-24T09:25:07.539Z,20
2017-01-24T09:26:17.740Z,15
2017-01-24T09:27:27.458Z,15
2017-01-24T09:28:37.170Z,15
2017-01-24T09:29:47.323Z,20
2017-01-24T09:30:57.037Z,20
2017-01-24T09:32:07.239Z,20
2017-01-24T09:33:17.387Z,20
2017-01-24T09:34:27.533Z,20
2017-01-24T09:35:38.126Z,20
2017-01-24T09:36:47.403Z,20
2017-01-24T09:37:57.607Z,20
2017-01-24T09:39:07.758Z,20
2017-01-24T09:40:17.487Z,20
2017-01-24T09:41:27.203Z,20
2017-01-24T09:42:37.354Z,20
2017-01-24T09:43:47.119Z,25
2017-01-24T09:44:57.271Z,20
2017-01-24T09:46:06.988Z,20
2017-01-24T09:47:16.709Z,20
2017-01-24T09:48:26.423Z,20
2017-01-24T09:49:36.205Z,20
2017-01-24T09:50:45.482Z,20
2017-01-24T09:51:55.195Z,20
2017-01-24T09:53:04.944Z,20
2017-01-24T09:54:14.217Z,20
2017-01-24T09:55:24.087Z,20
2017-01-24T09:56:34.247Z,20
2017-01-24T09:57:44.833Z,20
2017-01-24T09:58:55.426Z,20
2017-01-24T10:00:04.703Z,15
2017-01-24T10:01:14.468Z,15
2017-01-24T10:02:24.185Z,15
2017-01-24T10:03:33.903Z,20
2017-01-24T10:04:44.496Z,20
2017-01-24T10:05:55.525Z,20
2017-01-24T10:07:05.879Z,20
2017-01-24T10:08:15.603Z,20
2017-01-24T10:09:25.761Z,20
2017-01-24T10:10:35.922Z,20
2017-01-24T10:11:46.515Z,20
2017-01-24T10:12:55.845Z,20
2017-01-24T10:14:05.125Z,25
2017-01-24T10:15:15.711Z,25
2017-01-24T10:16:25.864Z,25
2017-01-24T10:17:36.457Z,25
2017-01-24T10:18:46.663Z,25
2017-01-24T10:19:55.948Z,30
2017-01-24T10:21:05.662Z,30
2017-01-24T10:22:16.249Z,35
2017-01-24T10:23:25.523Z,35
2017-01-24T10:24:36.180Z,35
2017-01-24T10:25:45.890Z,35
2017-01-24T10:26:56.518Z,30
2017-01-24T10:28:05.793Z,30
2017-01-24T10:29:15.526Z,30
2017-01-24T10:30:24.854Z,25
2017-01-24T10:31:34.575Z,25
2017-01-24T10:32:44.729Z,25
2017-01-24T10:33:55.321Z,20
2017-01-24T10:35:05.035Z,20
2017-01-24T10:36:15.240Z,20
2017-01-24T10:37:25.393Z,20
2017-01-24T10:38:35.106Z,20
2017-01-24T10:39:44.384Z,25
2017-01-24T10:40:53.665Z,25
2017-01-24T10:42:03.870Z,25
2017-01-24T10:43:13.620Z,25
2017-01-24T10:44:23.333Z,25
2017-01-24T10:45:32.618Z,30
2017-01-24T10:46:43.243Z,25
2017-01-24T10:47:52.568Z,25
2017-01-24T10:49:02.281Z,25
2017-01-24T10:50:11.563Z,25
2017-01-24T10:51:22.152Z,25
2017-01-24T10:52:32.309Z,20
2017-01-24T10:53:42.510Z,20
2017-01-24T10:54:52.683Z,20
2017-01-24T10:56:03.269Z,20
2017-01-24T10:57:12.544Z,20
2017-01-24T10:58:22.264Z,20
2017-01-24T10:59:32.468Z,25
2017-01-24T11:00:42.626Z,25
2017-01-24T11:01:51.907Z,25
2017-01-24T11:03:01.616Z,25
2017-01-24T11:04:11.333Z,25
2017-01-24T11:05:20.662Z,30
2017-01-24T11:06:30.815Z,30
2017-01-24T11:07:40.537Z,30
2017-01-24T11:08:50.247Z,30
2017-01-24T11:09:59.955Z,35
2017-01-24T11:11:10.165Z,35
2017-01-24T11:12:20.325Z,35
2017-01-24T11:13:30.043Z,35
2017-01-24T11:14:40.199Z,35
2017-01-24T11:15:50.357Z,35
2017-01-24T11:17:00.558Z,35
2017-01-24T11:18:10.716Z,35
2017-01-24T11:19:20.869Z,35
2017-01-24T11:20:30.590Z,35
2017-01-24T11:21:40.750Z,35
2017-01-24T11:22:50.076Z,35
2017-01-24T11:23:59.794Z,40
2017-01-24T11:25:10.390Z,40
2017-01-24T11:26:20.569Z,40
2017-01-24T11:27:29.844Z,35
2017-01-24T11:28:40.046Z,35
2017-01-24T11:29:49.763Z,35
2017-01-24T11:30:59.040Z,35
2017-01-24T11:32:08.749Z,40
2017-01-24T11:33:18.902Z,40
2017-01-24T11:34:29.108Z,40
2017-01-24T11:35:39.269Z,35
2017-01-24T11:36:49.426Z,40
2017-01-24T11:38:00.020Z,40
2017-01-24T11:39:09.741Z,35
2017-01-24T11:40:19.941Z,35
2017-01-24T11:41:29.655Z,35
2017-01-24T11:42:39.807Z,35
2017-01-24T11:43:49.081Z,35
2017-01-24T11:44:59.234Z,35
2017-01-24T11:46:08.565Z,35
2017-01-24T11:47:18.285Z,35
2017-01-24T11:48:28.441Z,35
2017-01-24T11:49:38.155Z,35
2017-01-24T11:50:48.332Z,35
2017-01-24T11:51:59.088Z,35
2017-01-24T11:53:09.239Z,40
2017-01-24T11:54:19.399Z,40
2017-01-24T11:55:29.120Z,40
2017-01-24T11:56:39.710Z,40
2017-01-24T11:57:49.472Z,40
2017-01-24T11:59:00.064Z,40
2017-01-24T12:00:09.782Z,40
2017-01-24T12:01:19.498Z,35
2017-01-24T12:02:28.776Z,35
2017-01-24T12:03:38.986Z,35
2017-01-24T12:04:49.166Z,30
2017-01-24T12:05:59.319Z,30
2017-01-24T12:07:09.037Z,30
2017-01-24T12:08:18.321Z,30
2017-01-24T12:09:28.527Z,30
2017-01-24T12:10:37.812Z,30
2017-01-24T12:11:48.409Z,35
2017-01-24T12:12:58.123Z,35
2017-01-24T12:14:08.289Z,35
2017-01-24T12:15:18.072Z,40
2017-01-24T12:16:27.800Z,40
2017-01-24T12:17:37.522Z,45
2017-01-24T12:18:46.804Z,45
2017-01-24T12:19:56.097Z,45
2017-01-24T12:21:05.862Z,45
2017-01-24T12:22:15.575Z,50
2017-01-24T12:23:25.737Z,45
2017-01-24T12:24:35.458Z,45
2017-01-24T12:25:45.615Z,45
2017-01-24T12:26:54.944Z,50
2017-01-24T12:28:05.097Z,45
2017-01-24T12:29:15.254Z,45
2017-01-24T12:30:24.972Z,45
2017-01-24T12:31:34.253Z,40
2017-01-24T12:32:43.737Z,40
2017-01-24T12:33:53.015Z,40
2017-01-24T12:35:02.293Z,35
2017-01-24T12:36:12.449Z,35
2017-01-24T12:37:21.727Z,35
2017-01-24T12:38:31.056Z,35
2017-01-24T12:39:41.213Z,40
2017-01-24T12:40:50.494Z,45
2017-01-24T12:42:00.207Z,45
2017-01-24T12:43:10.389Z,40
2017-01-24T12:44:19.717Z,40
2017-01-24T12:45:29.873Z,40
2017-01-24T12:46:39.584Z,35
2017-01-24T12:47:49.301Z,35
2017-01-24T12:48:59.018Z,30
2017-01-24T12:50:09.227Z,30
2017-01-24T12:51:19.380Z,30
2017-01-24T12:52:29.530Z,30
2017-01-24T12:53:38.810Z,30
2017-01-24T12:54:49.408Z,30
2017-01-24T12:56:00.050Z,30
2017-01-24T12:57:10.203Z,30
2017-01-24T12:58:20.356Z,30
2017-01-24T12:59:30.073Z,30
2017-01-24T13:00:39.785Z,30
2017-01-24T13:01:49.551Z,30
2017-01-24T13:02:59.273Z,30
2017-01-24T13:04:08.553Z,30
2017-01-24T13:05:18.266Z,30
2017-01-24T13:06:28.424Z,30
2017-01-24T13:07:39.072Z,30
2017-01-24T13:08:49.230Z,30
2017-01-24T13:09:59.383Z,30
2017-01-24T13:11:09.540Z,30
2017-01-24T13:12:19.249Z,30
2017-01-24T13:13:29.886Z,25
2017-01-24T13:14:39.600Z,25
2017-01-24T13:15:49.323Z,25
2017-01-24T13:16:59.910Z,25
2017-01-24T13:18:10.507Z,25
2017-01-24T13:19:20.724Z,25
2017-01-24T13:20:30.876Z,25
2017-01-24T13:21:40.155Z,25
2017-01-24T13:22:50.311Z,25
2017-01-24T13:24:00.024Z,30
2017-01-24T13:25:10.237Z,30
2017-01-24T13:26:19.950Z,30
2017-01-24T13:27:29.664Z,30
2017-01-24T13:28:38.945Z,30
2017-01-24T13:29:48.655Z,30
2017-01-24T13:30:58.866Z,25
2017-01-24T13:32:08.176Z,25
2017-01-24T13:33:17.893Z,25
2017-01-24T13:34:27.610Z,25
2017-01-24T13:35:37.763Z,25
2017-01-24T13:36:47.523Z,25
2017-01-24T13:37:58.125Z,25
2017-01-24T13:39:07.834Z,25
2017-01-24T13:40:17.115Z,25
2017-01-24T13:41:26.390Z,25
2017-01-24T13:42:35.721Z,25
2017-01-24T13:43:45.878Z,25
2017-01-24T13:44:55.586Z,25
2017-01-24T13:46:05.316Z,25
2017-01-24T13:47:15.029Z,25
2017-01-24T13:48:24.798Z,25
2017-01-24T13:49:34.515Z,25
2017-01-24T13:50:44.661Z,25
2017-01-24T13:51:54.382Z,25
2017-01-24T13:53:04.531Z,20
2017-01-24T13:54:14.300Z,20
2017-01-24T13:55:24.449Z,20
2017-01-24T13:56:33.729Z,20
2017-01-24T13:57:43.444Z,20
2017-01-24T13:58:53.596Z,20
2017-01-24T14:00:03.809Z,20
2017-01-24T14:01:13.521Z,20
2017-01-24T14:02:23.246Z,20
2017-01-24T14:03:32.955Z,20
2017-01-24T14:04:42.672Z,20
2017-01-24T14:05:52.881Z,20
2017-01-24T14:07:02.590Z,20
2017-01-24T14:08:13.182Z,20
2017-01-24T14:09:23.768Z,20
2017-01-24T14:10:33.932Z,20
2017-01-24T14:11:43.699Z,20
2017-01-24T14:12:53.418Z,20
2017-01-24T14:14:03.139Z,20
2017-01-24T14:15:13.291Z,20
2017-01-24T14:16:23.017Z,20
2017-01-24T14:17:33.226Z,20
2017-01-24T14:18:43.816Z,15
2017-01-24T14:19:53.092Z,15
2017-01-24T14:21:02.368Z,15
2017-01-24T14:22:12.119Z,15
2017-01-24T14:23:21.887Z,15
2017-01-24T14:24:32.529Z,15
2017-01-24T14:25:42.711Z,15
2017-01-24T14:26:52.434Z,15
2017-01-24T14:28:01.712Z,10
2017-01-24T14:29:12.359Z,10
2017-01-24T14:30:22.090Z,10
2017-01-24T14:31:31.806Z,10
2017-01-24T14:32:41.520Z,10
2017-01-24T14:33:51.236Z,10
2017-01-24T14:35:01.447Z,10
2017-01-24T14:36:11.603Z,10
2017-01-24T14:37:21.785Z,10
2017-01-24T14:38:31.937Z,10
2017-01-24T14:39:41.239Z,10
2017-01-24T14:40:51.447Z,10
2017-01-24T14:42:01.609Z,10
2017-01-24T14:43:11.330Z,10
2017-01-24T14:44:21.487Z,10
2017-01-24T14:45:32.080Z,5
2017-01-24T14:46:41.841Z,5
2017-01-24T14:47:51.551Z,5
2017-01-24T14:49:02.145Z,5
2017-01-24T14:50:12.732Z,5
2017-01-24T14:51:22.895Z,5
2017-01-24T14:52:32.658Z,5
2017-01-24T14:53:43.697Z,5
2017-01-24T14:54:53.418Z,5
2017-01-24T14:56:02.696Z,5
2017-01-24T14:57:11.977Z,5
2017-01-24T14:58:21.306Z,5
2017-01-24T14:59:30.583Z,5
2017-01-24T15:00:40.760Z,5
2017-01-24T15:01:50.913Z,5
2017-01-24T15:03:01.064Z,5
2017-01-24T15:04:11.312Z,5
2017-01-24T15:05:21.476Z,5
2017-01-24T15:06:31.630Z,5
2017-01-24T15:07:41.783Z,5
2017-01-24T15:08:51.503Z,5
2017-01-24T15:10:00.846Z,5
2017-01-24T15:11:11.455Z,5
2017-01-24T15:12:21.616Z,5
2017-01-24T15:13:31.774Z,5
2017-01-24T15:14:41.494Z,5
2017-01-24T15:15:51.700Z,5
2017-01-24T15:17:00.977Z,5
2017-01-24T15:18:10.698Z,5
2017-01-24T15:19:20.859Z,5
2017-01-24T15:20:31.452Z,5
2017-01-24T15:21:41.217Z,5
2017-01-24T15:22:51.371Z,5
2017-01-24T15:24:00.647Z,0
2017-01-24T15:25:10.389Z,0
2017-01-24T15:26:20.108Z,0
2017-01-24T15:27:29.907Z,0
2017-01-24T15:28:40.060Z,0
2017-01-24T15:29:49.778Z,0
2017-01-24T15:30:59.936Z,0
2017-01-24T15:32:09.217Z,0
2017-01-24T15:33:18.986Z,0
2017-01-24T15:34:28.703Z,0
2017-01-24T15:35:38.860Z,0
2017-01-24T15:36:48.592Z,0
2017-01-24T15:37:58.751Z,0
2017-01-24T15:39:08.524Z,0
2017-01-24T15:40:17.801Z,0
2017-01-24T15:41:27.523Z,0
2017-01-24T15:42:37.240Z,0
2017-01-24T15:43:47.389Z,0
2017-01-24T15:44:57.151Z,0
2017-01-24T15:46:06.899Z,0
2017-01-24T15:47:16.429Z,0
2017-01-24T15:48:26.918Z,0
2017-01-24T15:49:36.655Z,0
2017-01-24T15:50:46.425Z,0
2017-01-24T15:51:57.529Z,0
2017-01-24T15:53:07.462Z,0
2017-01-24T15:54:17.337Z,0
2017-01-24T15:55:28.538Z,0
2017-01-24T15:56:38.309Z,0
2017-01-24T15:57:48.521Z,0
2017-01-24T15:58:58.674Z,0
2017-01-24T16:00:09.230Z,0
2017-01-24T16:01:18.505Z,0
2017-01-24T16:02:28.405Z,0
2017-01-24T16:03:38.128Z,0
2017-01-24T16:04:48.436Z,0
2017-01-24T16:05:58.157Z,0
2017-01-24T16:07:08.315Z,0
2017-01-24T16:08:17.643Z,0
2017-01-24T16:09:27.792Z,0
2017-01-24T16:10:37.511Z,0
2017-01-24T16:11:47.236Z,0
2017-01-24T16:12:56.960Z,0
2017-01-24T16:14:07.066Z,0
2017-01-24T16:15:16.423Z,0
2017-01-24T16:16:26.356Z,0
2017-01-24T16:17:36.285Z,0
2017-01-24T16:18:46.011Z,0
2017-01-24T16:19:55.832Z,0
2017-01-24T16:21:06.421Z,0
2017-01-24T16:22:17.139Z,0
2017-01-24T16:23:26.732Z,0
2017-01-24T16:24:36.660Z,0
2017-01-24T16:25:46.306Z,0
2017-01-24T16:26:56.023Z,0
2017-01-24T16:28:06.532Z,0
2017-01-24T16:29:17.407Z,0
2017-01-24T16:30:27.135Z,0
2017-01-24T16:31:36.904Z,0
2017-01-24T16:32:46.621Z,0
2017-01-24T16:33:57.218Z,0
2017-01-24T16:35:07.424Z,0
2017-01-24T16:36:17.605Z,0
2017-01-24T16:37:26.938Z,0
2017-01-24T16:38:37.099Z,0
2017-01-24T16:39:47.260Z,0
2017-01-24T16:40:57.197Z,0
2017-01-24T16:42:08.198Z,0
2017-01-24T16:43:17.868Z,0
2017-01-24T16:44:27.889Z,0
2017-01-24T16:45:37.814Z,0
2017-01-24T16:46:47.530Z,0
2017-01-24T16:47:58.003Z,0
2017-01-24T16:49:07.338Z,0
2017-01-24T16:50:17.182Z,0
2017-01-24T16:51:26.463Z,0
2017-01-24T16:52:35.752Z,0
2017-01-24T16:53:45.914Z,0
2017-01-24T16:54:56.043Z,0
2017-01-24T16:56:06.205Z,0
2017-01-24T16:57:15.917Z,0
2017-01-24T16:58:26.078Z,0
2017-01-24T16:59:36.623Z,0